Time;durP1;ratioP1;P1;durP2;ratioP2;P2;SDS_P1;SDS_P2;PMS_P1;PMS_P2;Temp;Humidity;BMP_temperature;BMP_pressure;BME280_temperature;BME280_humidity;BME280_pressure;Samples;Min_cycle;Max_cycle;Signal;HPM_P1;HPM_P2
2021/05/30 00:02:20;;;;;;;5.20;4.80;;;16.90;99.90;;;;;;5031260;28;20199;-72
2021/05/30 00:04:46;;;;;;;5.28;4.60;;;16.90;99.90;;;;;;5032295;28;20199;-72
2021/05/30 00:07:12;;;;;;;4.10;3.80;;;16.80;99.90;;;;;;5031615;28;20203;-72
2021/05/30 00:09:39;;;;;;;4.80;4.05;;;16.80;99.90;;;;;;5028413;28;20230;-72
2021/05/30 00:12:06;;;;;;;4.32;3.92;;;16.80;99.90;;;;;;5012786;28;20212;-73
2021/05/30 00:14:33;;;;;;;4.78;3.80;;;16.80;99.90;;;;;;5030732;28;20199;-73
2021/05/30 00:17:00;;;;;;;4.90;4.50;;;16.80;99.90;;;;;;5031943;28;20199;-73
2021/05/30 00:19:26;;;;;;;5.28;4.38;;;16.80;99.90;;;;;;5015835;28;20204;-73
2021/05/30 00:21:53;;;;;;;4.30;4.00;;;16.70;99.90;;;;;;5023336;28;20196;-72
2021/05/30 00:24:19;;;;;;;4.28;3.90;;;16.70;99.90;;;;;;5031540;28;20234;-73
2021/05/30 00:26:47;;;;;;;4.97;4.57;;;16.70;99.90;;;;;;5031901;28;20203;-72
2021/05/30 00:29:13;;;;;;;5.38;4.07;;;16.70;99.90;;;;;;5028276;28;20211;-73
2021/05/30 00:31:40;;;;;;;4.40;4.00;;;16.70;99.90;;;;;;5026442;28;20199;-72
2021/05/30 00:34:06;;;;;;;5.63;4.18;;;16.60;99.90;;;;;;5031070;28;20223;-73
2021/05/30 00:36:32;;;;;;;5.85;5.07;;;16.60;99.90;;;;;;5031695;28;20223;-72
2021/05/30 00:38:58;;;;;;;4.32;4.03;;;16.60;99.90;;;;;;5032016;28;20202;-72
2021/05/30 00:41:25;;;;;;;4.50;3.78;;;16.60;99.90;;;;;;5031214;28;20587;-73
2021/05/30 00:43:54;;;;;;;4.78;4.38;;;16.60;99.90;;;;;;5031464;28;20203;-73
2021/05/30 00:46:21;;;;;;;4.95;4.40;;;16.60;99.90;;;;;;5031514;28;20524;-73
2021/05/30 00:48:49;;;;;;;6.88;4.00;;;16.50;99.90;;;;;;5030825;28;20206;-73
2021/05/30 00:51:16;;;;;;;4.32;3.60;;;16.50;99.90;;;;;;5031463;28;20571;-73
2021/05/30 00:53:44;;;;;;;4.53;4.10;;;16.50;99.90;;;;;;5030936;28;20203;-73
2021/05/30 00:56:13;;;;;;;5.03;4.63;;;16.50;99.90;;;;;;5030543;28;20219;-73
2021/05/30 00:58:39;;;;;;;4.20;3.83;;;16.50;99.90;;;;;;5031322;28;20200;-73
2021/05/30 01:01:06;;;;;;;4.70;4.30;;;16.40;99.90;;;;;;5031193;28;20215;-73
2021/05/30 01:03:34;;;;;;;4.68;4.28;;;16.40;99.90;;;;;;5031089;28;20204;-73
2021/05/30 01:06:02;;;;;;;5.13;4.63;;;16.40;99.90;;;;;;5030886;28;20203;-73
2021/05/30 01:08:28;;;;;;;6.30;5.70;;;16.40;99.90;;;;;;5030848;28;20588;-72
2021/05/30 01:10:55;;;;;;;4.80;4.40;;;16.40;99.90;;;;;;5030408;28;20204;-72
2021/05/30 01:16:44;;;;;;;5.47;4.82;;;16.30;99.90;;;;;;5024129;28;20222;-72
2021/05/30 01:19:11;;;;;;;4.68;3.95;;;16.30;99.90;;;;;;5016981;28;20203;-72
2021/05/30 01:21:38;;;;;;;4.57;4.18;;;16.30;99.90;;;;;;5019639;28;20196;-72
2021/05/30 01:24:06;;;;;;;4.60;3.80;;;16.20;99.90;;;;;;5030045;28;20218;-72
2021/05/30 01:26:33;;;;;;;4.60;4.20;;;16.20;99.90;;;;;;5029247;28;20632;-72
2021/05/30 01:28:59;;;;;;;5.97;5.38;;;16.20;99.90;;;;;;5031130;28;20298;-72
2021/05/30 01:31:25;;;;;;;4.93;4.35;;;16.20;99.90;;;;;;5030202;28;20226;-72
2021/05/30 01:33:51;;;;;;;4.75;4.35;;;16.20;99.90;;;;;;5030410;28;20227;-72
2021/05/30 01:36:18;;;;;;;4.43;4.00;;;16.20;99.90;;;;;;5028423;28;20219;-72
2021/05/30 01:38:44;;;;;;;7.35;4.57;;;16.10;99.90;;;;;;5030399;28;20195;-71
2021/05/30 01:41:11;;;;;;;5.47;5.03;;;16.10;99.90;;;;;;5030615;28;20537;-72
2021/05/30 01:43:37;;;;;;;4.65;4.25;;;16.10;99.90;;;;;;5032765;28;20199;-71
2021/05/30 01:46:04;;;;;;;5.00;4.50;;;16.10;99.90;;;;;;5034686;28;20192;-72
2021/05/30 01:48:30;;;;;;;5.38;4.88;;;16.10;99.90;;;;;;5029972;28;20199;-71
2021/05/30 01:50:57;;;;;;;4.95;4.50;;;16.10;99.90;;;;;;5034534;28;20188;-71
2021/05/30 01:53:32;;;;;;;4.43;4.03;;;16.10;99.90;;;;;;5033665;28;20719;-72
2021/05/30 01:58:44;;;;;;;5.25;4.57;;;16.00;99.90;;;;;;5033852;28;20234;-72
2021/05/30 02:01:14;;;;;;;4.75;4.35;;;16.00;99.90;;;;;;5033809;28;20210;-71
2021/05/30 02:03:43;;;;;;;5.80;4.95;;;16.00;99.90;;;;;;5034112;28;20223;-72
2021/05/30 02:06:10;;;;;;;5.03;4.40;;;15.90;99.90;;;;;;5033530;28;20203;-71
2021/05/30 02:08:39;;;;;;;6.57;5.25;;;15.90;99.90;;;;;;5033567;28;20207;-72
2021/05/30 02:11:08;;;;;;;5.85;5.35;;;15.90;99.90;;;;;;5033093;28;20254;-73
2021/05/30 02:13:35;;;;;;;5.00;4.57;;;15.90;99.90;;;;;;5021247;28;20199;-72
2021/05/30 02:16:03;;;;;;;5.40;4.90;;;15.90;99.90;;;;;;5033670;28;20246;-72
2021/05/30 02:18:29;;;;;;;6.38;5.20;;;15.80;99.90;;;;;;5033323;28;20206;-72
2021/05/30 02:20:56;;;;;;;4.90;4.50;;;15.80;99.90;;;;;;5033985;28;20199;-73
2021/05/30 02:23:22;;;;;;;6.65;4.80;;;15.80;99.90;;;;;;5033885;28;20254;-73
2021/05/30 02:25:48;;;;;;;6.00;4.30;;;15.80;99.90;;;;;;5033364;28;20291;-73
2021/05/30 02:28:15;;;;;;;5.68;4.90;;;15.80;99.90;;;;;;5033993;28;20640;-72
2021/05/30 02:30:41;;;;;;;5.88;4.90;;;15.80;99.90;;;;;;5033664;28;20200;-72
2021/05/30 02:33:08;;;;;;;5.65;5.00;;;15.70;99.90;;;;;;5027176;28;20235;-72
2021/05/30 02:35:35;;;;;;;5.68;4.72;;;15.70;99.90;;;;;;5033926;28;20262;-72
2021/05/30 02:38:01;;;;;;;5.20;4.60;;;15.70;99.90;;;;;;5034079;28;20207;-72
2021/05/30 02:40:27;;;;;;;5.00;4.60;;;15.70;99.90;;;;;;5032150;28;20207;-72
2021/05/30 02:42:54;;;;;;;4.57;4.18;;;15.60;99.90;;;;;;5033451;28;20191;-72
2021/05/30 02:45:20;;;;;;;5.20;4.70;;;15.60;99.90;;;;;;5032026;28;20408;-72
2021/05/30 02:47:47;;;;;;;6.20;5.63;;;15.60;99.90;;;;;;5030903;28;20203;-72
2021/05/30 02:50:14;;;;;;;4.93;4.53;;;15.60;99.90;;;;;;5014014;28;20262;-73
2021/05/30 02:52:41;;;;;;;5.47;4.97;;;15.60;99.90;;;;;;5029966;28;20184;-73
2021/05/30 02:55:09;;;;;;;5.03;4.63;;;15.60;99.90;;;;;;5030959;28;20215;-73
2021/05/30 02:57:35;;;;;;;5.20;4.70;;;15.60;99.90;;;;;;5032932;28;20226;-73
2021/05/30 03:00:01;;;;;;;6.05;4.50;;;15.50;99.90;;;;;;5023298;28;20637;-73
2021/05/30 03:02:27;;;;;;;7.50;5.38;;;15.50;99.90;;;;;;5031949;28;20203;-73
2021/05/30 03:04:54;;;;;;;5.68;5.15;;;15.50;99.90;;;;;;5025610;28;20274;-73
2021/05/30 03:07:21;;;;;;;6.22;5.63;;;15.50;99.90;;;;;;5022386;28;20195;-73
2021/05/30 03:09:47;;;;;;;6.68;5.25;;;15.40;99.90;;;;;;5027046;28;20266;-73
2021/05/30 03:12:13;;;;;;;6.03;4.55;;;15.40;99.90;;;;;;5029017;28;20199;-72
2021/05/30 03:14:40;;;;;;;6.00;5.47;;;15.40;99.90;;;;;;5026939;28;20680;-72
2021/05/30 03:17:06;;;;;;;5.85;5.35;;;15.40;99.90;;;;;;5032007;28;20529;-72
2021/05/30 03:19:32;;;;;;;5.03;4.53;;;15.40;99.90;;;;;;5024046;28;20552;-72
2021/05/30 03:21:58;;;;;;;6.78;5.55;;;15.40;99.90;;;;;;5032013;28;20203;-73
2021/05/30 03:24:25;;;;;;;5.88;5.20;;;15.40;99.90;;;;;;5031658;28;20215;-73
2021/05/30 03:26:53;;;;;;;4.97;4.57;;;15.30;99.90;;;;;;5031898;28;20195;-73
2021/05/30 03:29:20;;;;;;;5.10;4.60;;;15.30;99.90;;;;;;5032656;28;20195;-72
2021/05/30 03:31:46;;;;;;;5.78;4.63;;;15.30;99.90;;;;;;5032959;28;20218;-72
2021/05/30 03:34:12;;;;;;;6.10;5.60;;;15.30;99.90;;;;;;5032879;28;20234;-73
2021/05/30 03:36:38;;;;;;;5.10;4.70;;;15.20;99.90;;;;;;5032527;28;20695;-72
2021/05/30 03:39:07;;;;;;;6.60;6.00;;;15.20;99.90;;;;;;5032708;28;20533;-72
2021/05/30 03:41:38;;;;;;;5.57;5.07;;;15.20;99.90;;;;;;5032562;28;20202;-73
2021/05/30 03:44:06;;;;;;;6.38;5.05;;;15.20;99.90;;;;;;5032766;28;20207;-72
2021/05/30 03:46:33;;;;;;;6.25;5.65;;;15.20;99.90;;;;;;5032275;28;20655;-73
2021/05/30 03:48:59;;;;;;;6.40;5.80;;;15.20;99.90;;;;;;5021759;28;20662;-73
2021/05/30 03:51:26;;;;;;;7.93;6.20;;;15.10;99.90;;;;;;5032391;28;20203;-72
2021/05/30 03:53:52;;;;;;;6.13;5.53;;;15.10;99.90;;;;;;5032368;28;20195;-72
2021/05/30 03:56:19;;;;;;;6.97;5.72;;;15.10;99.90;;;;;;5032262;28;20602;-72
2021/05/30 03:58:46;;;;;;;8.60;7.45;;;15.10;99.90;;;;;;5031192;28;20196;-73
2021/05/30 04:01:12;;;;;;;6.65;6.05;;;15.10;99.90;;;;;;5032497;28;20206;-73
2021/05/30 04:03:38;;;;;;;5.65;5.15;;;15.10;99.90;;;;;;5032019;28;20218;-72
2021/05/30 04:06:05;;;;;;;5.45;4.93;;;15.10;99.90;;;;;;5023993;28;20345;-73
2021/05/30 04:08:31;;;;;;;6.72;5.72;;;15.10;99.90;;;;;;5031492;28;20188;-73
2021/05/30 04:10:57;;;;;;;7.68;6.97;;;15.00;99.90;;;;;;5031764;28;20199;-72
2021/05/30 04:13:23;;;;;;;6.43;5.82;;;15.00;99.90;;;;;;5031805;28;20200;-73
2021/05/30 04:15:50;;;;;;;6.20;5.53;;;15.00;99.90;;;;;;5031040;28;20208;-72
2021/05/30 04:18:20;;;;;;;6.43;5.82;;;15.00;99.90;;;;;;5028951;28;20227;-73
2021/05/30 04:20:46;;;;;;;6.00;5.50;;;15.00;99.90;;;;;;5014680;28;20302;-73
2021/05/30 04:23:13;;;;;;;6.10;5.30;;;15.00;99.90;;;;;;5031613;28;20222;-72
2021/05/30 04:25:41;;;;;;;7.82;6.68;;;15.00;99.90;;;;;;5031676;28;20202;-73
2021/05/30 04:28:07;;;;;;;5.95;5.43;;;15.00;99.90;;;;;;5030899;28;20209;-73
2021/05/30 04:30:33;;;;;;;6.15;5.53;;;15.00;99.90;;;;;;5031132;28;20207;-73
2021/05/30 04:33:00;;;;;;;6.32;5.75;;;14.90;99.90;;;;;;5030660;28;20227;-73
2021/05/30 04:35:27;;;;;;;6.38;5.40;;;14.90;99.90;;;;;;5031169;28;20663;-73
2021/05/30 04:37:53;;;;;;;6.93;5.50;;;14.90;99.90;;;;;;5023430;28;20755;-73
2021/05/30 04:40:23;;;;;;;7.22;6.57;;;14.90;99.90;;;;;;5030622;28;20203;-73
2021/05/30 04:42:49;;;;;;;6.55;5.95;;;14.90;99.90;;;;;;5031681;28;20199;-73
2021/05/30 04:45:16;;;;;;;5.65;5.15;;;14.90;99.90;;;;;;5031050;28;20196;-73
2021/05/30 04:47:43;;;;;;;7.35;6.68;;;14.90;99.90;;;;;;5031413;28;20195;-73
2021/05/30 04:50:11;;;;;;;6.50;5.90;;;14.90;99.90;;;;;;5013480;28;20196;-73
2021/05/30 04:52:37;;;;;;;6.65;6.05;;;14.90;99.90;;;;;;5025528;28;20199;-72
2021/05/30 04:55:04;;;;;;;6.30;5.70;;;14.90;99.90;;;;;;5031817;28;20273;-72
2021/05/30 04:57:30;;;;;;;6.53;5.93;;;14.80;99.90;;;;;;5031365;28;20242;-72
2021/05/30 04:59:56;;;;;;;6.03;5.53;;;14.80;99.90;;;;;;5031495;28;20260;-72
2021/05/30 05:02:22;;;;;;;8.48;5.85;;;14.80;99.90;;;;;;5028598;28;20556;-73
2021/05/30 05:04:49;;;;;;;8.98;6.15;;;14.80;99.90;;;;;;5050593;28;20202;-73
2021/05/30 05:07:16;;;;;;;8.35;5.65;;;14.80;99.90;;;;;;5032905;28;20191;-73
2021/05/30 05:09:43;;;;;;;6.13;5.53;;;14.80;99.90;;;;;;5030744;28;20203;-72
2021/05/30 05:12:10;;;;;;;11.60;6.97;;;14.80;99.90;;;;;;5031369;28;20199;-72
2021/05/30 05:14:36;;;;;;;8.88;6.32;;;14.80;99.90;;;;;;5031134;28;20540;-73
2021/05/30 05:17:03;;;;;;;8.63;7.72;;;14.80;99.90;;;;;;5029766;28;20273;-72
2021/05/30 05:19:29;;;;;;;6.80;5.53;;;14.80;99.90;;;;;;5017972;28;20192;-73
2021/05/30 05:21:55;;;;;;;6.22;5.63;;;14.70;99.90;;;;;;5018432;28;20299;-73
2021/05/30 05:24:22;;;;;;;6.15;5.65;;;14.80;99.90;;;;;;5011632;28;20561;-73
2021/05/30 05:26:48;;;;;;;6.32;5.72;;;14.80;99.90;;;;;;5029783;28;20640;-73
2021/05/30 05:29:15;;;;;;;6.63;6.03;;;14.80;99.90;;;;;;5030170;28;20210;-73
2021/05/30 05:31:41;;;;;;;6.82;5.35;;;14.80;99.90;;;;;;5030350;28;20241;-73
2021/05/30 05:34:07;;;;;;;7.15;6.40;;;14.90;99.90;;;;;;5030407;28;20238;-72
2021/05/30 05:36:34;;;;;;;6.85;6.25;;;15.10;99.90;;;;;;5030621;28;20731;-72
2021/05/30 05:39:00;;;;;;;6.60;6.10;;;15.30;99.90;;;;;;5030413;28;20206;-72
2021/05/30 05:41:27;;;;;;;7.50;6.85;;;15.50;99.90;;;;;;5030064;28;20261;-73
2021/05/30 05:43:53;;;;;;;6.55;5.95;;;15.70;99.90;;;;;;5031035;28;20192;-73
2021/05/30 05:46:19;;;;;;;6.43;5.82;;;15.90;99.90;;;;;;5030548;28;20203;-72
2021/05/30 05:48:45;;;;;;;5.68;5.13;;;16.10;99.90;;;;;;5029880;28;20204;-73
2021/05/30 05:51:12;;;;;;;5.28;4.75;;;16.30;99.90;;;;;;5030562;28;20254;-72
2021/05/30 05:53:38;;;;;;;6.20;5.70;;;16.50;99.90;;;;;;5030286;28;20632;-73
2021/05/30 05:56:05;;;;;;;6.72;6.13;;;16.60;99.90;;;;;;5029718;28;20215;-72
2021/05/30 05:58:32;;;;;;;4.85;4.35;;;16.70;99.90;;;;;;5030330;28;20257;-72
2021/05/30 06:00:58;;;;;;;4.90;4.40;;;16.90;99.90;;;;;;5030553;28;20517;-73
2021/05/30 06:03:24;;;;;;;6.18;4.55;;;17.00;99.90;;;;;;5029846;28;20215;-73
2021/05/30 06:05:51;;;;;;;5.88;5.38;;;17.10;99.90;;;;;;5030602;28;20195;-72
2021/05/30 06:08:17;;;;;;;5.15;4.75;;;17.20;99.90;;;;;;5030136;28;20632;-72
2021/05/30 06:10:43;;;;;;;5.28;4.80;;;17.40;99.90;;;;;;5029697;28;20199;-73
2021/05/30 06:13:10;;;;;;;7.13;4.63;;;17.50;99.90;;;;;;5030732;28;20223;-72
2021/05/30 06:15:39;;;;;;;6.13;5.50;;;17.60;99.90;;;;;;5029552;28;20269;-72
2021/05/30 06:18:09;;;;;;;5.68;4.55;;;17.70;99.90;;;;;;5028982;28;20199;-72
2021/05/30 06:20:36;;;;;;;5.40;4.88;;;17.80;99.90;;;;;;5022258;28;20208;-73
2021/05/30 06:23:03;;;;;;;5.03;4.57;;;17.90;99.90;;;;;;5029901;28;20203;-73
2021/05/30 06:25:30;;;;;;;5.07;4.68;;;18.00;99.90;;;;;;5030157;28;20209;-72
2021/05/30 06:27:57;;;;;;;6.15;4.90;;;18.00;99.90;;;;;;5030474;28;20294;-72
2021/05/30 06:30:23;;;;;;;6.53;4.75;;;18.10;99.90;;;;;;5030923;28;20200;-72
2021/05/30 06:32:51;;;;;;;5.25;4.75;;;18.20;99.90;;;;;;5032596;28;20231;-72
2021/05/30 06:35:17;;;;;;;6.88;6.22;;;18.20;99.90;;;;;;5032998;28;20639;-72
2021/05/30 06:37:43;;;;;;;5.13;4.70;;;18.30;99.90;;;;;;5013882;28;20290;-72
2021/05/30 06:40:10;;;;;;;4.45;4.15;;;18.40;99.90;;;;;;5030755;28;20195;-73
2021/05/30 06:42:36;;;;;;;5.53;5.00;;;18.40;99.90;;;;;;5032693;28;20259;-73
2021/05/30 06:45:04;;;;;;;5.55;5.05;;;18.50;99.80;;;;;;5033107;28;20203;-74
2021/05/30 06:47:30;;;;;;;6.00;5.32;;;18.60;99.70;;;;;;5032664;28;20287;-74
2021/05/30 06:49:57;;;;;;;5.22;4.72;;;18.60;99.40;;;;;;5017629;28;20525;-73
2021/05/30 06:52:24;;;;;;;5.72;5.22;;;18.70;99.30;;;;;;5024137;28;20199;-73
2021/05/30 06:54:50;;;;;;;6.13;5.63;;;18.80;99.10;;;;;;5033149;28;20199;-73
2021/05/30 06:57:17;;;;;;;5.13;4.55;;;18.90;98.90;;;;;;5031820;28;20660;-72
2021/05/30 06:59:43;;;;;;;4.80;4.40;;;19.00;98.70;;;;;;5013548;28;20641;-72
2021/05/30 07:02:09;;;;;;;4.15;3.75;;;19.00;98.40;;;;;;5032953;28;20206;-72
2021/05/30 07:04:36;;;;;;;5.65;5.15;;;19.10;98.20;;;;;;5033054;28;20238;-72
2021/05/30 07:07:03;;;;;;;4.90;4.45;;;19.20;97.90;;;;;;5032720;28;20575;-71
2021/05/30 07:09:29;;;;;;;5.43;4.93;;;19.30;97.80;;;;;;5032844;28;20207;-71
2021/05/30 07:11:55;;;;;;;7.50;5.13;;;19.30;97.40;;;;;;5032444;28;20199;-70
2021/05/30 07:14:22;;;;;;;6.20;4.78;;;19.40;97.40;;;;;;5032786;28;20207;-71
2021/05/30 07:16:48;;;;;;;6.75;4.75;;;19.50;97.10;;;;;;5032574;28;20219;-70
2021/05/30 07:19:14;;;;;;;4.43;4.05;;;19.50;96.90;;;;;;5028408;28;20207;-70
2021/05/30 07:21:40;;;;;;;4.72;4.25;;;19.60;96.80;;;;;;5013239;28;20204;-70
2021/05/30 07:24:08;;;;;;;4.35;3.95;;;19.70;96.70;;;;;;5012975;28;20204;-70
2021/05/30 07:26:37;;;;;;;4.63;4.22;;;19.70;96.60;;;;;;5029722;28;20707;-71
2021/05/30 07:29:03;;;;;;;5.22;4.70;;;19.70;96.20;;;;;;5032471;28;20267;-72
2021/05/30 07:31:30;;;;;;;4.50;4.10;;;19.80;96.10;;;;;;5032717;28;20195;-71
2021/05/30 07:33:56;;;;;;;4.65;4.25;;;19.90;96.10;;;;;;5032463;28;20270;-70
2021/05/30 07:36:24;;;;;;;5.90;4.75;;;19.90;96.00;;;;;;5032623;28;20230;-70
2021/05/30 07:38:50;;;;;;;4.75;4.25;;;20.00;95.70;;;;;;5028718;28;20223;-71
2021/05/30 07:41:17;;;;;;;4.40;3.70;;;20.00;95.70;;;;;;5012253;28;20210;-69
2021/05/30 07:43:44;;;;;;;7.00;3.85;;;20.10;95.60;;;;;;5012488;28;20564;-69
2021/05/30 07:46:10;;;;;;;4.97;4.53;;;20.10;95.10;;;;;;5016242;28;20204;-73
2021/05/30 07:48:36;;;;;;;5.35;3.95;;;20.20;95.10;;;;;;5028874;28;20289;-73
2021/05/30 07:51:03;;;;;;;9.00;4.05;;;20.30;95.00;;;;;;5032440;28;20208;-73
2021/05/30 07:53:29;;;;;;;3.65;3.35;;;20.30;95.00;;;;;;5032586;28;20207;-71
2021/05/30 07:55:55;;;;;;;3.80;3.40;;;20.40;95.00;;;;;;5031986;28;20227;-70
2021/05/30 07:58:22;;;;;;;4.40;3.50;;;20.50;94.60;;;;;;5016923;28;20207;-71
2021/05/30 08:00:49;;;;;;;4.15;3.35;;;20.50;94.20;;;;;;5030239;28;20246;-72
2021/05/30 08:03:15;;;;;;;5.20;2.72;;;20.60;94.30;;;;;;5031837;28;20370;-71
2021/05/30 08:05:41;;;;;;;5.15;4.13;;;20.70;94.40;;;;;;5031445;28;20911;-70
2021/05/30 08:08:07;;;;;;;4.00;3.63;;;20.70;94.00;;;;;;5031159;28;20226;-73
2021/05/30 08:10:34;;;;;;;5.32;3.58;;;20.70;94.00;;;;;;5031931;28;20195;-72
2021/05/30 08:13:00;;;;;;;3.47;3.25;;;20.80;94.20;;;;;;5032096;28;20294;-71
2021/05/30 08:15:27;;;;;;;4.80;4.32;;;20.90;94.00;;;;;;5031287;28;20192;-71
2021/05/30 08:17:55;;;;;;;4.32;3.92;;;20.90;93.60;;;;;;5031707;28;20199;-72
2021/05/30 08:20:23;;;;;;;3.63;3.33;;;20.90;93.40;;;;;;5031764;28;20796;-71
2021/05/30 08:22:50;;;;;;;3.78;3.45;;;20.90;93.60;;;;;;5031557;28;21121;-71
2021/05/30 08:25:17;;;;;;;3.90;3.60;;;21.00;93.60;;;;;;5031068;28;20200;-72
2021/05/30 08:27:44;;;;;;;3.90;3.45;;;21.00;93.60;;;;;;5031009;28;20218;-72
2021/05/30 08:30:12;;;;;;;3.10;2.90;;;21.10;93.30;;;;;;5030616;28;20223;-72
2021/05/30 08:32:39;;;;;;;3.80;3.50;;;21.10;93.20;;;;;;5031456;28;20262;-72
2021/05/30 08:35:07;;;;;;;4.38;4.07;;;21.10;92.70;;;;;;5031865;28;20199;-72
2021/05/30 08:37:34;;;;;;;4.72;3.80;;;21.10;92.50;;;;;;5025272;28;20668;-72
2021/05/30 08:40:00;;;;;;;3.47;3.17;;;21.20;92.90;;;;;;5031255;28;20200;-72
2021/05/30 08:42:26;;;;;;;3.63;3.33;;;21.10;93.10;;;;;;5030944;28;20866;-72
2021/05/30 08:44:55;;;;;;;4.55;4.15;;;21.20;93.10;;;;;;5031324;28;20199;-72
2021/05/30 08:47:22;;;;;;;3.53;3.22;;;21.20;92.60;;;;;;5030656;28;20199;-71
2021/05/30 08:49:50;;;;;;;4.05;3.65;;;21.20;92.50;;;;;;5030982;28;20876;-71
2021/05/30 08:52:16;;;;;;;4.47;3.30;;;21.20;92.10;;;;;;5028971;28;20219;-72
2021/05/30 08:54:43;;;;;;;4.70;3.20;;;21.20;92.30;;;;;;5031280;28;20200;-72
2021/05/30 08:57:10;;;;;;;6.13;3.78;;;21.30;92.40;;;;;;5018980;28;20228;-71
2021/05/30 08:59:37;;;;;;;3.58;3.28;;;21.30;92.10;;;;;;5011445;28;20204;-72
2021/05/30 09:02:10;;;;;;;2.95;2.75;;;21.30;92.50;;;;;;5026021;28;20203;-71
2021/05/30 09:04:38;;;;;;;3.25;2.95;;;21.30;92.40;;;;;;5031345;28;20184;-72
2021/05/30 09:07:05;;;;;;;4.30;3.15;;;21.40;92.40;;;;;;5025026;28;20204;-72
2021/05/30 09:09:39;;;;;;;3.08;2.83;;;21.40;92.30;;;;;;5011862;28;20207;-71
2021/05/30 09:12:10;;;;;;;2.90;2.70;;;21.40;92.00;;;;;;5027379;28;20207;-71
2021/05/30 09:14:41;;;;;;;4.03;3.63;;;21.40;92.20;;;;;;5031136;28;20222;-73
2021/05/30 09:17:09;;;;;;;3.92;3.45;;;21.40;91.40;;;;;;5031018;28;20327;-72
2021/05/30 09:19:43;;;;;;;2.80;2.60;;;21.40;91.40;;;;;;5030810;28;20215;-71
2021/05/30 09:22:32;;;;;;;3.20;2.90;;;21.40;91.80;;;;;;5027948;28;20386;-72
2021/05/30 09:25:18;;;;;;;3.53;3.17;;;21.40;91.40;;;;;;5030611;28;20342;-71
2021/05/30 09:27:59;;;;;;;3.00;2.80;;;21.40;91.50;;;;;;5030611;28;20265;-71
2021/05/30 09:30:32;;;;;;;2.50;2.30;;;21.40;91.70;;;;;;5026344;28;20206;-71
2021/05/30 09:33:07;;;;;;;3.35;3.05;;;21.30;92.30;;;;;;5030097;28;20706;-71
2021/05/30 09:36:02;;;;;;;3.28;2.97;;;21.40;92.30;;;;;;5030874;28;20202;-72
2021/05/30 09:38:39;;;;;;;3.35;3.05;;;21.40;92.30;;;;;;5030313;28;20203;-71
2021/05/30 09:41:11;;;;;;;4.03;3.22;;;21.40;92.30;;;;;;5030209;28;20882;-71
2021/05/30 09:43:46;;;;;;;2.85;2.53;;;21.40;91.90;;;;;;5030781;28;20203;-70
2021/05/30 09:46:14;;;;;;;3.15;2.95;;;21.40;91.80;;;;;;5029900;28;20203;-71
2021/05/30 09:48:55;;;;;;;2.72;2.53;;;21.40;91.70;;;;;;5028876;28;20195;-71
2021/05/30 09:51:30;;;;;;;2.67;2.47;;;21.30;91.80;;;;;;5029593;28;20670;-71
2021/05/30 09:54:01;;;;;;;3.35;3.05;;;21.40;90.70;;;;;;5026965;28;20539;-71
2021/05/30 09:56:29;;;;;;;2.75;2.55;;;21.40;91.30;;;;;;5027592;28;20211;-72
2021/05/30 09:58:56;;;;;;;3.15;2.60;;;21.30;89.80;;;;;;5030838;28;20200;-71
2021/05/30 10:01:25;;;;;;;2.88;2.67;;;21.30;91.30;;;;;;5030179;28;20195;-71
2021/05/30 10:03:51;;;;;;;3.72;2.95;;;21.30;90.70;;;;;;5031284;28;20250;-71
2021/05/30 10:06:18;;;;;;;3.40;3.10;;;21.30;90.90;;;;;;5030775;28;20188;-71
2021/05/30 10:08:45;;;;;;;2.55;2.35;;;21.30;90.50;;;;;;5034520;28;20195;-71
2021/05/30 10:11:13;;;;;;;2.72;2.53;;;21.30;90.10;;;;;;5034587;28;20954;-71
2021/05/30 10:13:40;;;;;;;3.53;3.30;;;21.20;90.40;;;;;;5033864;28;20215;-72
2021/05/30 10:16:08;;;;;;;3.50;3.20;;;21.20;90.80;;;;;;5034562;28;20663;-73
2021/05/30 10:18:40;;;;;;;4.53;3.60;;;21.20;90.50;;;;;;5034185;28;20246;-77
2021/05/30 10:21:08;;;;;;;2.92;2.70;;;21.20;90.90;;;;;;5024689;28;20200;-71
2021/05/30 10:23:40;;;;;;;2.92;2.72;;;21.20;90.10;;;;;;5027260;28;20971;-70
2021/05/30 10:26:15;;;;;;;3.47;3.20;;;21.20;90.90;;;;;;5033963;28;20529;-72
2021/05/30 10:28:52;;;;;;;2.85;2.65;;;21.20;90.30;;;;;;5033885;28;20210;-70
2021/05/30 10:31:21;;;;;;;3.30;3.00;;;21.10;90.10;;;;;;5034093;28;20179;-71
2021/05/30 10:34:17;;;;;;;3.10;2.60;;;21.10;90.20;;;;;;5020333;28;20824;-70
2021/05/30 10:36:45;;;;;;;4.07;3.67;;;21.10;90.80;;;;;;5033803;28;20598;-70
2021/05/30 10:39:33;;;;;;;3.75;3.45;;;21.10;90.60;;;;;;5034155;28;20338;-70
2021/05/30 10:42:11;;;;;;;3.03;2.72;;;21.10;90.60;;;;;;5033292;28;20283;-70
2021/05/30 10:44:55;;;;;;;2.88;2.67;;;21.00;90.80;;;;;;5033083;28;20207;-70
2021/05/30 10:47:42;;;;;;;3.33;3.13;;;21.00;90.40;;;;;;5025928;28;20253;-71
2021/05/30 10:50:12;;;;;;;4.93;3.45;;;21.00;90.90;;;;;;5032701;28;20207;-70
2021/05/30 10:52:41;;;;;;;4.10;3.15;;;21.00;90.70;;;;;;5031402;28;20207;-71
2021/05/30 10:55:08;;;;;;;3.13;2.83;;;21.00;91.10;;;;;;5018498;28;20207;-72
2021/05/30 10:57:42;;;;;;;5.60;3.58;;;21.00;91.40;;;;;;5031876;28;20227;-69
2021/05/30 11:00:34;;;;;;;3.58;2.55;;;21.00;91.70;;;;;;5033039;28;20246;-71
2021/05/30 11:03:10;;;;;;;3.75;3.15;;;20.90;91.00;;;;;;5025218;28;20196;-72
2021/05/30 11:05:45;;;;;;;2.92;2.72;;;20.90;91.40;;;;;;5033187;28;20219;-71
2021/05/30 11:08:49;;;;;;;2.97;2.78;;;20.90;91.40;;;;;;5031853;28;20527;-72
2021/05/30 11:11:20;;;;;;;3.88;3.20;;;20.90;91.40;;;;;;5032887;28;20342;-71
2021/05/30 11:13:52;;;;;;;3.50;3.20;;;20.90;91.10;;;;;;5015377;28;20197;-70
2021/05/30 11:16:20;;;;;;;4.38;3.33;;;20.90;91.50;;;;;;5030381;28;20300;-71
2021/05/30 11:18:56;;;;;;;4.88;4.38;;;20.90;91.50;;;;;;5032475;28;20199;-71
2021/05/30 11:21:27;;;;;;;4.78;3.72;;;20.90;90.60;;;;;;5032874;28;20238;-73
2021/05/30 11:23:54;;;;;;;3.97;3.55;;;20.80;81.30;;;;;;5032539;28;20651;-72
2021/05/30 11:26:20;;;;;;;4.85;3.92;;;20.70;81.00;;;;;;5033003;28;20261;-72
2021/05/30 11:28:47;;;;;;;3.95;3.28;;;20.80;80.70;;;;;;5032873;28;20229;-71
2021/05/30 11:31:15;;;;;;;5.65;3.92;;;20.80;77.40;;;;;;5033357;28;20199;-71
2021/05/30 11:33:43;;;;;;;4.57;4.10;;;20.90;78.10;;;;;;5031445;28;20223;-71
2021/05/30 11:36:16;;;;;;;3.60;3.30;;;21.00;78.70;;;;;;5032512;28;20310;-70
2021/05/30 11:38:45;;;;;;;4.75;3.60;;;21.30;79.10;;;;;;5032588;28;20204;-71
2021/05/30 11:41:16;;;;;;;4.50;3.45;;;21.40;80.60;;;;;;5031928;28;20230;-70
2021/05/30 11:44:10;;;;;;;5.05;3.75;;;21.40;81.90;;;;;;5032191;28;20628;-71
2021/05/30 11:46:41;;;;;;;4.00;3.70;;;21.40;82.40;;;;;;5032291;28;20206;-70
2021/05/30 11:49:11;;;;;;;4.65;3.70;;;21.40;83.10;;;;;;5029979;28;20278;-70
2021/05/30 11:52:00;;;;;;;4.25;3.95;;;21.30;83.70;;;;;;5023591;28;20251;-71
2021/05/30 11:54:29;;;;;;;4.97;3.45;;;21.20;84.10;;;;;;5011786;28;20188;-71
2021/05/30 11:56:57;;;;;;;3.60;3.30;;;21.20;84.60;;;;;;5019033;28;20211;-70
2021/05/30 11:59:31;;;;;;;3.38;3.08;;;21.10;84.70;;;;;;5030217;28;20207;-71
2021/05/30 12:01:58;;;;;;;5.55;3.60;;;21.00;85.60;;;;;;5030840;28;20203;-71
2021/05/30 12:04:33;;;;;;;3.80;3.50;;;21.00;86.00;;;;;;5029341;28;20211;-71
2021/05/30 12:07:00;;;;;;;3.90;3.50;;;20.90;86.60;;;;;;5020222;28;20199;-71
2021/05/30 12:09:45;;;;;;;3.60;3.30;;;21.00;87.10;;;;;;5031679;28;20200;-71
2021/05/30 12:12:32;;;;;;;3.58;3.28;;;20.90;87.60;;;;;;5012141;28;20195;-71
2021/05/30 12:15:05;;;;;;;3.08;2.85;;;20.80;87.60;;;;;;5017816;28;20628;-71
2021/05/30 12:17:33;;;;;;;4.20;3.80;;;20.80;87.80;;;;;;5031517;28;20227;-71
2021/05/30 12:20:00;;;;;;;4.88;3.22;;;20.80;87.90;;;;;;5031419;28;20648;-71
2021/05/30 12:22:28;;;;;;;3.25;3.03;;;20.80;87.90;;;;;;5031396;28;20210;-71
2021/05/30 12:24:54;;;;;;;3.17;2.55;;;20.70;87.30;;;;;;5013632;28;20203;-72
2021/05/30 12:27:22;;;;;;;3.22;2.92;;;20.70;88.10;;;;;;5011033;28;20215;-72
2021/05/30 12:29:49;;;;;;;3.30;2.97;;;20.80;88.90;;;;;;5011676;28;20722;-72
2021/05/30 12:32:16;;;;;;;3.90;2.92;;;20.70;87.50;;;;;;5015641;28;20295;-71
2021/05/30 12:34:43;;;;;;;3.22;2.92;;;20.70;87.60;;;;;;5014607;28;20227;-71
2021/05/30 12:37:09;;;;;;;4.40;3.13;;;20.70;87.60;;;;;;5011527;28;20231;-71
2021/05/30 12:39:36;;;;;;;4.35;3.40;;;20.70;87.70;;;;;;5011709;28;20196;-71
2021/05/30 12:42:05;;;;;;;4.45;3.55;;;20.70;87.90;;;;;;5023691;28;20208;-71
2021/05/30 12:44:41;;;;;;;3.05;2.85;;;20.70;88.50;;;;;;5016773;28;20204;-71
2021/05/30 12:47:13;;;;;;;3.70;3.40;;;20.70;88.70;;;;;;5021218;28;20210;-71
2021/05/30 12:49:39;;;;;;;3.05;2.75;;;20.70;87.50;;;;;;5030897;28;20214;-71
2021/05/30 12:52:09;;;;;;;3.15;2.85;;;20.70;88.00;;;;;;5030971;28;20330;-71
2021/05/30 12:54:37;;;;;;;3.03;2.67;;;20.70;88.20;;;;;;5031503;28;20292;-72
2021/05/30 12:57:05;;;;;;;3.85;3.05;;;20.70;87.50;;;;;;5028226;28;20261;-71
2021/05/30 12:59:34;;;;;;;3.35;2.80;;;20.70;86.60;;;;;;5030829;28;20199;-71
2021/05/30 13:02:09;;;;;;;3.40;3.08;;;20.60;85.90;;;;;;5031150;28;20597;-71